createdAt,value
2023-02-04T00:00:00.556Z,99830.34
2023-02-04T00:05:22.306Z,99824.06
2023-02-04T00:10:44.034Z,99803.59
2023-02-04T00:16:06.320Z,99810.78
2023-02-04T00:21:28.097Z,99817.09
2023-02-04T00:26:49.842Z,99812.63
2023-02-04T00:32:11.623Z,99828.69
2023-02-04T00:37:33.573Z,99841.63
2023-02-04T00:42:55.473Z,99840.84
2023-02-04T00:48:17.181Z,99851.41
2023-02-04T00:53:38.911Z,99850.41
2023-02-04T00:59:00.710Z,99863.19
2023-02-04T01:04:23.392Z,99875.25
2023-02-04T01:09:45.136Z,99865.16
2023-02-04T01:15:07.274Z,99865.94
2023-02-04T01:20:29.490Z,99869.41
2023-02-04T01:25:51.557Z,99851.25
2023-02-04T01:31:13.683Z,99882.03
2023-02-04T01:36:35.497Z,99875.09
2023-02-04T01:41:57.926Z,99887.22
2023-02-04T01:47:20.649Z,99883.59
2023-02-04T01:52:44.145Z,99886.13
2023-02-04T01:58:05.938Z,99875.84
2023-02-04T02:03:27.649Z,99887.22
2023-02-04T02:08:49.412Z,99894.97
2023-02-04T02:14:12.392Z,99903.00
2023-02-04T02:19:37.933Z,99919.69
2023-02-04T02:24:59.629Z,99915.41
2023-02-04T02:30:21.695Z,99925.81
2023-02-04T02:35:48.232Z,99934.16
2023-02-04T02:41:10.984Z,99950.13
2023-02-04T02:46:33.091Z,99930.03
2023-02-04T02:51:54.865Z,99943.88
2023-02-04T02:57:19.704Z,99938.56
2023-02-04T03:02:41.891Z,99938.75
2023-02-04T03:08:04.692Z,99949.31
2023-02-04T03:13:26.441Z,99957.38
2023-02-04T03:18:49.442Z,99969.75
2023-02-04T03:24:11.585Z,99967.16
2023-02-04T03:29:33.692Z,99974.75
2023-02-04T03:34:55.383Z,99979.81
2023-02-04T03:40:17.182Z,99986.88
2023-02-04T03:45:45.245Z,99986.72
2023-02-04T03:51:07.507Z,100001.75
2023-02-04T03:56:29.251Z,100001.88
2023-02-04T04:01:52.547Z,100010.41
2023-02-04T04:07:14.328Z,100016.59
2023-02-04T04:12:36.175Z,100024.59
2023-02-04T04:17:57.943Z,100026.25
2023-02-04T04:23:19.678Z,100034.00
2023-02-04T04:28:41.370Z,100038.78
2023-02-04T04:34:03.171Z,100046.50
2023-02-04T04:39:24.927Z,100047.22
2023-02-04T04:44:46.624Z,100044.63
2023-02-04T04:50:08.762Z,100053.13
2023-02-04T04:55:30.695Z,100046.16
2023-02-04T05:00:52.414Z,100049.72
2023-02-04T05:06:14.211Z,100049.69
2023-02-04T05:11:35.919Z,100050.53
2023-02-04T05:16:57.622Z,100055.03
2023-02-04T05:22:19.321Z,100051.56
2023-02-04T05:27:41.048Z,100056.38
2023-02-04T05:33:02.778Z,100072.47
2023-02-04T05:38:24.464Z,100078.75
2023-02-04T05:43:46.185Z,100086.56
2023-02-04T05:49:08.243Z,100080.44
2023-02-04T05:54:29.985Z,100077.91
2023-02-04T05:59:51.676Z,100063.97
2023-02-04T06:05:13.485Z,100081.28
2023-02-04T06:10:35.170Z,100098.63
2023-02-04T06:15:56.905Z,100105.72
2023-02-04T06:21:18.935Z,100107.53
2023-02-04T06:26:40.704Z,100119.78
2023-02-04T06:32:02.495Z,100124.19
2023-02-04T06:37:24.513Z,100127.50
2023-02-04T06:42:46.254Z,100138.75
2023-02-04T06:48:07.972Z,100140.03
2023-02-04T06:53:29.727Z,100148.59
2023-02-04T06:58:51.442Z,100155.31
2023-02-04T07:04:13.211Z,100177.16
2023-02-04T07:09:34.946Z,100168.44
2023-02-04T07:14:56.644Z,100176.38
2023-02-04T07:20:18.533Z,100185.06
2023-02-04T07:25:40.261Z,100205.94
2023-02-04T07:31:02.137Z,100208.56
2023-02-04T07:36:24.081Z,100216.34
2023-02-04T07:41:45.895Z,100217.41
2023-02-04T07:47:07.599Z,100212.09
2023-02-04T07:52:29.289Z,100232.16
2023-02-04T07:57:51.003Z,100223.44
2023-02-04T08:03:12.713Z,100251.31
2023-02-04T08:08:34.407Z,100259.09
2023-02-04T08:13:56.112Z,100257.25
2023-02-04T08:19:20.654Z,100263.50
2023-02-04T08:24:42.469Z,100263.50
2023-02-04T08:30:05.428Z,100278.09
2023-02-04T08:35:27.220Z,100282.44
2023-02-04T08:40:48.915Z,100284.28
2023-02-04T08:46:10.767Z,100280.00
2023-02-04T08:51:32.879Z,100292.13
2023-02-04T08:56:54.594Z,100296.22
2023-02-04T09:02:16.327Z,100305.72
2023-02-04T09:07:38.105Z,100309.38
2023-02-04T09:12:59.906Z,100312.84
2023-02-04T09:18:22.582Z,100316.59
2023-02-04T09:23:46.532Z,100326.91
2023-02-04T09:29:08.255Z,100333.91
2023-02-04T09:34:29.953Z,100339.84
2023-02-04T09:39:51.678Z,100347.66
2023-02-04T09:45:24.303Z,100349.28
2023-02-04T09:50:46.049Z,100370.69
2023-02-04T09:56:10.965Z,100371.47
2023-02-04T10:01:33.024Z,100369.47
2023-02-04T10:06:58.530Z,100367.69
2023-02-04T10:12:21.072Z,100360.66
2023-02-04T10:17:43.275Z,100358.72
2023-02-04T10:23:12.457Z,100370.06
2023-02-04T10:28:35.431Z,100361.47
2023-02-04T10:34:05.343Z,100360.53
2023-02-04T10:39:29.104Z,100358.88
2023-02-04T10:44:51.090Z,100358.91
2023-02-04T10:50:21.262Z,100350.97
2023-02-04T10:55:47.444Z,100352.69
2023-02-04T11:01:13.930Z,100347.38
2023-02-04T11:06:35.665Z,100356.13
2023-02-04T11:11:58.177Z,100354.84
2023-02-04T11:17:21.404Z,100362.66
2023-02-04T11:22:46.910Z,100357.44
2023-02-04T11:28:40.738Z,100359.97
2023-02-04T11:34:21.550Z,100359.28
2023-02-04T11:39:46.965Z,100353.72
2023-02-04T11:45:15.747Z,100355.06
2023-02-04T11:50:41.576Z,100359.22
2023-02-04T11:56:03.483Z,100356.69
2023-02-04T12:01:33.712Z,100355.59
2023-02-04T12:07:01.048Z,100360.13
2023-02-04T12:12:29.215Z,100365.25
2023-02-04T12:18:02.667Z,100370.38
2023-02-04T12:23:25.679Z,100373.84
2023-02-04T12:28:47.374Z,100360.59
2023-02-04T12:34:09.081Z,100368.41
2023-02-04T12:39:32.001Z,100367.34
2023-02-04T12:44:53.702Z,100359.69
2023-02-04T12:50:22.558Z,100368.34
2023-02-04T12:55:44.311Z,100370.97
2023-02-04T13:01:06.085Z,100374.63
2023-02-04T13:06:27.822Z,100366.63
2023-02-04T13:11:49.530Z,100376.31
2023-02-04T13:17:11.325Z,100376.63
2023-02-04T13:22:33.192Z,100372.13
2023-02-04T13:27:55.007Z,100372.13
2023-02-04T13:33:16.730Z,100376.41
2023-02-04T13:38:38.435Z,100374.72
2023-02-04T13:44:00.157Z,100387.03
2023-02-04T13:49:21.914Z,100400.69
2023-02-04T13:54:44.285Z,100394.50
2023-02-04T14:00:07.451Z,100401.91
2023-02-04T14:05:29.193Z,100410.22
2023-02-04T14:10:50.928Z,100402.66
2023-02-04T14:16:12.695Z,100398.34
2023-02-04T14:21:34.437Z,100399.22
2023-02-04T14:26:56.163Z,100403.50
2023-02-04T14:32:18.018Z,100403.50
2023-02-04T14:37:39.752Z,100419.09
2023-02-04T14:43:01.498Z,100414.63
2023-02-04T14:48:23.260Z,100410.22
2023-02-04T14:53:48.305Z,100416.16
2023-02-04T14:59:10.996Z,100429.19
2023-02-04T15:04:33.192Z,100419.59
2023-02-04T15:09:54.962Z,100430.13
2023-02-04T15:15:16.868Z,100430.78
2023-02-04T15:20:38.566Z,100422.41
2023-02-04T15:26:00.274Z,100425.25
2023-02-04T15:31:23.398Z,100429.81
2023-02-04T15:36:45.145Z,100435.16
2023-02-04T15:42:06.951Z,100435.19
2023-02-04T15:47:28.796Z,100444.84
2023-02-04T15:52:50.579Z,100443.91
2023-02-04T15:58:12.808Z,100444.91
2023-02-04T16:03:34.508Z,100450.88
2023-02-04T16:08:56.239Z,100460.47
2023-02-04T16:14:17.934Z,100454.41
2023-02-04T16:19:39.678Z,100470.13
2023-02-04T16:25:01.418Z,100469.28
2023-02-04T16:30:23.135Z,100481.44
2023-02-04T16:36:04.552Z,100489.88
2023-02-04T16:41:26.250Z,100497.13
2023-02-04T16:46:49.492Z,100490.31
2023-02-04T16:52:11.279Z,100500.03
2023-02-04T16:57:33.289Z,100513.13
2023-02-04T17:02:55.007Z,100504.63
2023-02-04T17:08:17.406Z,100509.13
2023-02-04T17:13:39.321Z,100509.19
2023-02-04T17:19:01.694Z,100512.13
2023-02-04T17:24:24.495Z,100515.53
2023-02-04T17:29:46.194Z,100538.16
2023-02-04T17:35:08.070Z,100533.19
2023-02-04T17:40:30.252Z,100540.22
2023-02-04T17:45:52.053Z,100535.09
2023-02-04T17:51:13.929Z,100549.03
2023-02-04T17:56:35.635Z,100548.19
2023-02-04T18:01:57.555Z,100556.09
2023-02-04T18:07:19.548Z,100562.13
2023-02-04T18:12:41.315Z,100550.16
2023-02-04T18:18:18.268Z,100550.97
2023-02-04T18:23:40.202Z,100549.22
2023-02-04T18:29:18.222Z,100543.22
2023-02-04T18:34:43.780Z,100543.31
2023-02-04T18:40:08.578Z,100552.91
2023-02-04T18:45:32.402Z,100550.34
2023-02-04T18:50:54.874Z,100550.38
2023-02-04T18:56:18.157Z,100547.78
2023-02-04T19:01:39.929Z,100559.97
2023-02-04T19:07:01.736Z,100554.84
2023-02-04T19:12:25.103Z,100558.28
2023-02-04T19:17:46.796Z,100564.41
2023-02-04T19:23:15.707Z,100565.25
2023-02-04T19:28:37.853Z,100558.31
2023-02-04T19:34:12.598Z,100549.72
2023-02-04T19:39:40.228Z,100554.97
2023-02-04T19:45:23.483Z,100549.81
2023-02-04T19:50:45.430Z,100553.22
2023-02-04T19:56:39.463Z,100554.97
2023-02-04T20:02:07.025Z,100558.41
2023-02-04T20:07:32.207Z,100556.75
2023-02-04T20:13:12.286Z,100565.44
2023-02-04T20:18:33.993Z,100560.19
2023-02-04T20:23:55.704Z,100574.13
2023-02-04T20:29:22.604Z,100578.47
2023-02-04T20:34:44.358Z,100582.75
2023-02-04T20:40:35.022Z,100581.84
2023-02-04T20:46:00.132Z,100591.38
2023-02-04T20:51:24.003Z,100593.13
2023-02-04T20:56:45.850Z,100590.56
2023-02-04T21:02:17.384Z,100600.97
2023-02-04T21:07:39.075Z,100607.91
2023-02-04T21:13:01.508Z,100595.78
2023-02-04T21:18:23.355Z,100598.38
2023-02-04T21:23:45.059Z,100599.28
2023-02-04T21:29:06.782Z,100604.56
2023-02-04T21:34:28.474Z,100610.56
2023-02-04T21:39:50.177Z,100605.41
2023-02-04T21:45:11.893Z,100605.44
2023-02-04T21:50:34.336Z,100609.75
2023-02-04T21:55:57.876Z,100610.63
2023-02-04T22:01:20.832Z,100606.31
2023-02-04T22:06:42.551Z,100611.47
2023-02-04T22:12:04.466Z,100608.03
2023-02-04T22:17:26.348Z,100616.63
2023-02-04T22:22:48.614Z,100612.25
2023-02-04T22:28:10.348Z,100613.09
2023-02-04T22:33:32.127Z,100607.88
2023-02-04T22:38:53.845Z,100593.25
2023-02-04T22:44:15.563Z,100595.84
2023-02-04T22:49:37.404Z,100606.19
2023-02-04T22:54:59.111Z,100607.94
2023-02-04T23:00:20.975Z,100624.31
2023-02-04T23:05:45.097Z,100620.84
2023-02-04T23:11:06.798Z,100617.41
2023-02-04T23:16:28.602Z,100618.28
2023-02-04T23:21:50.311Z,100607.06
2023-02-04T23:27:12.649Z,100612.25
2023-02-04T23:32:34.469Z,100613.91
2023-02-04T23:37:56.183Z,100607.88
2023-02-04T23:43:17.967Z,100621.78
2023-02-04T23:48:39.692Z,100626.09
2023-02-04T23:54:01.470Z,100617.44
2023-02-04T23:59:23.774Z,100609.66
